Startpagina
METAR-TAF:

METAR-TAF

Vliegvelden :

Geilenkirchen, Duitsland

breedte: 50-57-39N, lengte: 006-2-33E, hoogte: 90 m

Actueel weer

Dit bericht is 14 minuten geleden gemaakt, om 09:50 UTC
Wind 2 kt uit het oostzuidoosten
Temperatuur 1°C
Vochtigheid 75%
Druk 1020 hPa
Zicht 10 km of meer
geen wolken onder 1500 m en geen cumulonimbus

METAR: ETNG 190950Z 11002KT CAVOK 01/M03 Q1020 NOSIG

Tijdstip: 11:04 (10:04 UTC)

Verwachting

Dit bericht is 2 uur en het 11 minuten geleden gemaakt, om 07:53 UTC
Verwachting geldig van 19 om 09 UTC tot 19 om 24 UTC
Wind 2 kt uit variabele richting
Zicht 10 km of meer
geen wolken onder 1500 m en geen cumulonimbus

TAF: ETNG 190753Z 1909/1924 VRB02KT CAVOK

Waarnemingen en weersverwachtingen van meer dan 4000 vliegvelden (METAR en TAF).

De beschikbare stations zijn de gele en rode punten op de kaart.

Ga met uw muis naar het station om de naam te zien.

Klik dan om waarnemingen en weersverwachtingen te zien.

kaart wijzigen: klik op de groene knoppen met een zwart kruis om in te zoomen, op de groene knop met een streepje om uit te zoomen of op de groene pijlen voor aangrenzende kaarten.


METAR-TAF: